Latest Weather Observations for Goulburn Airport

IDN60901

Issued at 11:41 am EST Tuesday 1 September 2015 (issued every 10 minutes, with the page automatically refreshed every 10 minutes)

About weather observations | Map of Canberra area stations | Latest observations for Canberra area | Other Formats
Station Details ID: 070330 Name: GOULBURN AIRPORT AWS Lat: -34.81 Lon: 149.73 Height: 640.0 m
Data from the previous 72 hours. | See also: Recent months at Goulburn Airport
Date/Time
EST
Tmp

°C
App
Tmp
°C
Dew
Point
°C
Rel
Hum
%
Delta-T

°C
Wind Press
QNH
hPa
Press
MSL
hPa
Rain
since
9 am
mm
Dir
 
Spd
km/h
Gust
km/h
Spd
kts
Gust
kts
01/11:30am 10.9 4.2 3.7 61 3.3 WNW 28 35 15 19 1015.5 1015.4 0.0
01/11:00am 9.7 2.2 3.2 64 2.9 WNW 32 39 17 21 1015.7 1015.7 0.0
01/10:30am 9.6 4.0 3.4 65 2.8 W 22 30 12 16 1015.6 1015.6 0.0
01/10:00am 8.5 3.4 3.1 69 2.4 W 19 24 10 13 1015.7 1015.7 0.0
01/09:30am 7.4 2.3 3.3 75 1.8 W 19 24 10 13 1015.8 1016.6 0.0
01/09:00am 6.7 1.0 2.6 75 1.8 W 22 30 12 16 1015.8 1016.6 0.0
01/08:58am 6.4 0.6 2.3 75 1.7 W 22 30 12 16 1015.8 1016.6 0.0
01/08:30am 6.0 0.7 3.0 81 1.3 WNW 20 26 11 14 1015.9 1016.7 0.0
01/08:00am 5.0 0.2 2.7 85 1.0 W 17 20 9 11 1015.9 1016.7 0.0
01/07:30am 4.1 -0.4 2.1 87 0.8 WNW 15 17 8 9 1015.8 1016.6 0.0
01/07:00am 4.2 0.1 2.2 87 0.8 W 13 17 7 9 1015.7 1016.5 0.0
01/06:30am 4.0 -0.9 2.0 87 0.8 W 17 22 9 12 1015.4 1016.1 0.0
01/06:00am 4.6 -0.2 2.5 86 0.9 WNW 17 22 9 12 1015.1 1015.8 0.0
01/05:30am 4.6 -0.7 2.9 89 0.7 W 20 28 11 15 1015.0 1015.7 0.0
01/05:00am 4.6 0.3 3.3 91 0.6 W 15 19 8 10 1014.9 1015.6 0.0
01/04:30am 4.7 0.8 3.5 92 0.5 W 13 20 7 11 1014.7 1015.5 0.0
01/04:00am 4.6 0.4 3.6 93 0.4 WNW 15 22 8 12 1014.7 1015.5 0.0
01/03:35am 4.0 -0.7 3.4 96 0.3 WNW 17 20 9 11 1014.9 1015.6 0.0
01/03:30am 3.4 -1.0 2.7 95 0.3 WNW 15 20 8 11 1015.0 1015.7 0.0
01/03:00am 2.4 -1.5 1.4 93 0.4 WNW 11 17 6 9 1015.1 1015.8 0.0
01/02:30am 2.8 0.2 1.2 89 0.6 WNW 4 9 2 5 1015.3 1016.0 0.0
01/02:00am 3.4 1.7 1.6 88 0.7 CALM 0 0 0 0 1015.4 1016.1 0.0
01/01:30am 4.2 0.9 2.7 90 0.6 WNW 9 13 5 7 1015.7 1016.5 0.0
01/01:00am 4.3 -0.5 2.5 88 0.8 WNW 17 24 9 13 1015.9 1016.7 0.0
01/12:30am 5.1 -0.2 3.0 86 0.9 WNW 20 26 11 14 1015.9 1016.7 0.0
01/12:27am 5.3 0.0 3.2 86 0.9 WNW 20 30 11 16 1015.9 1016.7 0.0
01/12:00am 5.4 1.8 2.9 84 1.1 W 11 13 6 7 1016.1 1016.9 0.0
 
Date/Time
EST
Tmp

°C
App
Tmp
°C
Dew
Point
°C
Rel
Hum
%
Delta-T

°C
Wind Press
QNH
hPa
Press
MSL
hPa
Rain
since
9 am
mm
Dir
 
Spd
km/h
Gust
km/h
Spd
kts
Gust
kts
31/11:30pm 5.4 2.5 2.6 82 1.2 W 7 13 4 7 1016.1 1016.9 0.0
31/11:16pm 5.7 3.1 3.0 83 1.2 ENE 6 9 3 5 1016.1 1016.9 0.0
31/11:00pm 5.1 1.8 2.3 82 1.2 ESE 9 13 5 7 1016.1 1016.9 0.0
31/10:30pm 6.0 2.7 2.5 78 1.5 NW 9 15 5 8 1016.0 1016.8 0.0
31/10:00pm 6.1 0.9 2.7 79 1.5 WNW 19 22 10 12 1015.9 1016.7 0.0
31/09:30pm 6.0 1.2 2.5 78 1.5 WNW 17 22 9 12 1016.1 1016.9 0.0
31/09:00pm 5.6 0.7 2.3 79 1.4 NW 17 20 9 11 1016.1 1016.9 0.0
31/08:30pm 5.3 2.2 1.4 76 1.6 NNW 7 9 4 5 1016.0 1016.8 0.0
31/08:00pm 5.9 2.6 2.2 77 1.6 NW 9 13 5 7 1015.9 1016.7 0.0
31/07:30pm 6.3 2.2 2.2 75 1.7 WNW 13 19 7 10 1015.8 1016.6 0.0
31/07:00pm 7.2 1.7 2.1 70 2.2 W 20 30 11 16 1015.6 1016.4 0.0
31/06:30pm 7.8 2.4 2.7 70 2.2 WNW 20 26 11 14 1015.1 1015.8 0.0
31/06:00pm 8.3 3.2 2.8 68 2.4 WNW 19 24 10 13 1015.1 1015.8 0.0
31/05:30pm 9.3 4.1 2.6 63 3.0 WNW 19 22 10 12 1014.7 1015.5 0.0
31/05:00pm 10.7 4.5 2.3 56 3.7 WNW 24 30 13 16 1014.7 1015.5 0.0
31/04:30pm 11.7 5.3 3.0 55 4.0 WNW 26 32 14 17 1014.4 1015.2 0.0
31/04:00pm 12.4 6.6 2.3 50 4.5 WNW 22 30 12 16 1014.5 1015.3 0.0
31/03:30pm 12.8 7.3 1.8 47 4.9 WNW 20 28 11 15 1014.5 1015.3 0.0
31/03:00pm 12.2 7.3 2.1 50 4.5 WNW 17 32 9 17 1014.5 1015.3 0.0
31/02:30pm 13.0 7.7 2.8 50 4.7 W 20 32 11 17 1014.9 1015.6 0.0
31/02:00pm 13.0 7.6 2.5 49 4.8 WNW 20 30 11 16 1015.1 1015.8 0.0
31/01:30pm 13.0 7.6 2.3 48 4.8 W 20 46 11 25 1015.4 1016.1 0.0
31/01:00pm 12.8 7.4 2.6 50 4.6 W 20 48 11 26 1015.6 1016.4 0.0
31/12:30pm 13.0 8.0 3.7 53 4.3 WSW 19 32 10 17 1015.9 1016.7 0.0
31/12:00pm 12.0 7.3 1.1 47 4.8 WSW 15 24 8 13 1016.2 1017.0 0.0
31/11:30am 11.5 6.1 1.2 49 4.5 W 19 24 10 13 1016.6 1017.3 0.0
31/11:00am 11.1 6.2 1.9 53 4.1 W 17 22 9 12 1017.0 1017.8 0.0
31/10:30am 10.4 5.0 1.5 54 3.9 W 19 24 10 13 1017.4 1018.2 0.0
31/10:00am 9.2 4.3 -0.4 51 3.9 W 15 22 8 12 1017.5 1018.3 0.0
31/09:30am 8.0 4.6 1.6 64 2.7 WSW 9 15 5 8 1017.7 1018.5 0.0
31/09:00am 6.8 3.3 1.3 68 2.3 W 9 13 5 7 1017.8 1018.6 0.6
31/08:30am 5.6 2.0 0.6 70 2.0 WNW 9 13 5 7 1017.8 1018.6 0.6
31/08:00am 4.1 -0.3 0.6 78 1.4 WNW 13 17 7 9 1017.8 1018.6 0.6
31/07:30am 2.2 -0.9 1.3 94 0.4 N 7 9 4 5 1017.8 1018.6 0.6
31/07:00am 0.4 -2.7 0.0 97 0.2 N 6 7 3 4 1017.7 1018.5 0.6
31/06:30am -0.6 -2.8 -1.3 95 0.2 CALM 0 0 0 0 1017.6 1018.4 0.6
31/06:00am -0.7 -2.9 -1.5 94 0.3 CALM 0 0 0 0 1017.4 1018.2 0.6
31/05:30am 0.0 -2.1 -0.7 95 0.3 CALM 0 0 0 0 1017.3 1018.1 0.6
31/05:00am -0.2 -3.7 -1.2 93 0.4 SSE 7 9 4 5 1017.3 1018.1 0.6
31/04:30am 0.7 -1.3 -0.3 93 0.4 CALM 0 0 0 0 1017.2 1018.0 0.6
31/04:00am 1.2 -0.8 -0.1 91 0.5 CALM 0 0 0 0 1017.1 1017.9 0.6
31/03:30am 2.0 -0.6 0.7 91 0.5 NE 4 7 2 4 1017.1 1017.9 0.6
31/03:00am 2.7 0.8 0.8 87 0.7 CALM 0 0 0 0 1017.4 1018.2 0.6
31/02:30am 4.2 1.8 2.2 87 0.8 ENE 4 6 2 3 1017.8 1018.6 0.6
31/02:00am 4.8 2.5 2.5 85 1.0 S 4 6 2 3 1018.3 1019.1 0.6
31/01:30am 5.2 2.4 2.9 85 1.0 SW 7 9 4 5 1018.6 1019.4 0.6
31/01:00am 5.4 1.4 2.8 83 1.1 SW 13 15 7 8 1018.9 1019.7 0.6
31/12:30am 5.8 1.8 3.0 82 1.2 WSW 13 17 7 9 1019.0 1019.8 0.6
31/12:00am 6.5 5.4 5.1 91 0.6 CALM 0 0 0 0 1019.0 1019.8 0.6
 
Date/Time
EST
Tmp

°C
App
Tmp
°C
Dew
Point
°C
Rel
Hum
%
Delta-T

°C
Wind Press
QNH
hPa
Press
MSL
hPa
Rain
since
9 am
mm
Dir
 
Spd
km/h
Gust
km/h
Spd
kts
Gust
kts
30/11:30pm 6.8 5.7 5.3 90 0.7 CALM 0 0 0 0 1019.3 1020.1 0.6
30/11:00pm 6.9 5.9 5.4 90 0.7 CALM 0 0 0 0 1019.2 1020.0 0.6
30/10:30pm 7.0 5.9 5.3 89 0.8 CALM 0 0 0 0 1019.4 1020.3 0.6
30/10:00pm 6.9 4.5 5.2 89 0.8 SW 7 9 4 5 1019.6 1020.5 0.6
30/09:30pm 7.0 4.9 5.9 93 0.5 S 6 9 3 5 1019.6 1020.5 0.6
30/09:00pm 7.0 4.3 5.6 91 0.6 SW 9 9 5 5 1019.6 1020.5 0.6
30/08:30pm 7.4 5.1 5.9 90 0.7 WSW 7 9 4 5 1019.6 1020.5 0.6
30/08:00pm 7.8 4.9 6.7 93 0.5 SW 11 15 6 8 1019.6 1020.5 0.2
30/07:30pm 8.1 5.6 6.7 91 0.7 SE 9 11 5 6 1019.3 1020.1 0.2
30/07:00pm 8.2 4.1 6.3 88 0.9 SSE 17 22 9 12 1019.1 1019.9 0.0
30/06:30pm 9.2 6.3 4.8 74 2.0 SW 9 13 5 7 1018.7 1019.5 0.0
30/06:00pm 9.8 6.4 4.2 68 2.6 W 11 15 6 8 1018.3 1019.1 0.0
30/05:30pm 10.4 6.6 3.9 64 3.0 W 13 15 7 8 1017.9 1018.7 0.0
30/05:00pm 11.0 7.2 3.8 61 3.3 W 13 15 7 8 1017.7 1018.5 0.0
30/04:30pm 11.4 7.8 2.9 56 3.8 WSW 11 15 6 8 1017.6 1018.4 0.0
30/04:00pm 11.5 7.9 2.8 55 3.9 WSW 11 15 6 8 1017.6 1018.4 0.0
30/03:30pm 11.8 7.8 2.8 54 4.1 SW 13 15 7 8 1017.8 1018.6 0.0
30/03:00pm 11.8 8.5 2.3 52 4.2 SW 9 15 5 8 1017.9 1018.7 0.0
30/02:30pm 11.8 9.2 3.1 55 4.0 SW 6 11 3 6 1018.0 1018.8 0.0
30/02:00pm 11.8 8.6 3.1 55 4.0 SSW 9 11 5 6 1018.1 1019.0 0.0
30/01:30pm 11.9 8.7 2.9 54 4.1 SSW 9 11 5 6 1018.3 1019.1 0.0
30/01:00pm 12.0 8.7 2.5 52 4.3 SSW 9 13 5 7 1018.7 1019.5 0.0
30/12:30pm 12.3 9.2 3.5 55 4.1 SSW 9 15 5 8 1019.1 1019.9 0.0
30/12:00pm 12.5 9.3 3.2 53 4.3 S 9 17 5 9 1019.4 1020.3 0.0
30/11:30am 10.5 6.8 2.4 57 3.6 SW 11 17 6 9 1020.0 1020.8 0.0
30/11:00am 10.7 7.7 2.3 56 3.7 S 7 15 4 8 1020.3 1021.1 0.0
30/10:30am 10.5 6.9 2.8 59 3.4 SSW 11 17 6 9 1020.5 1021.3 0.0
30/10:00am 9.3 6.5 3.1 65 2.8 SSW 7 15 4 8 1020.5 1021.3 0.0
30/09:30am 7.6 4.9 3.6 76 1.8 NW 7 13 4 7 1020.6 1021.4 0.0
30/09:00am 5.5 2.2 2.3 80 1.3 NW 9 11 5 6 1020.8 1021.7 0.0
30/08:30am 4.3 0.2 2.2 86 0.9 NNW 13 17 7 9 1020.9 1021.8 0.0
30/08:00am 2.9 -0.5 2.0 94 0.4 N 9 13 5 7 1020.8 1021.7 0.0
30/07:30am 0.9 -2.7 0.6 98 0.1 N 9 11 5 6 1020.5 1021.3 0.0
30/07:00am -1.9 -4.2 -2.6 95 0.2 CALM 0 2 0 1 1020.3 1021.1 0.0
30/06:30am -2.1 -4.5 -2.8 95 0.1 CALM 0 0 0 0 1020.2 1021.0 0.0
30/06:00am -2.3 -4.7 -3.0 95 0.1 CALM 0 0 0 0 1020.1 1020.9 0.0
30/05:30am -2.4 -5.2 -3.1 95 0.1 N 2 7 1 4 1020.0 1020.8 0.0
30/05:00am -1.7 -4.0 -2.5 94 0.2 CALM 0 0 0 0 1020.1 1020.9 0.0
30/04:30am -1.3 -4.7 -1.9 96 0.2 N 6 6 3 3 1020.1 1020.9 0.0
30/04:00am -1.3 -5.6 -1.9 96 0.2 N 11 13 6 7 1020.1 1020.9 0.0
30/03:30am -1.4 -5.8 -2.1 95 0.2 N 11 13 6 7 1020.1 1020.9 0.0
30/03:00am -1.2 -4.8 -2.2 93 0.3 N 7 7 4 4 1020.3 1021.1 0.0
30/02:30am -0.9 -5.2 -1.7 94 0.2 N 11 13 6 7 1020.5 1021.3 0.0
30/02:00am -0.8 -4.7 -1.5 95 0.2 N 9 11 5 6 1020.8 1021.7 0.0
30/01:30am -1.2 -3.5 -2.3 92 0.3 CALM 0 0 0 0 1021.1 1022.0 0.0
30/01:00am -1.1 -4.1 -2.1 93 0.3 SE 4 7 2 4 1021.3 1022.2 0.0
30/12:30am -1.3 -3.6 -2.6 91 0.4 CALM 0 2 0 1 1021.4 1022.3 0.0
30/12:00am 0.0 -3.3 -1.0 93 0.4 ESE 6 11 3 6 1021.3 1022.2 0.0
 
Date/Time
EST
Tmp

°C
App
Tmp
°C
Dew
Point
°C
Rel
Hum
%
Delta-T

°C
Wind Press
QNH
hPa
Press
MSL
hPa
Rain
since
9 am
mm
Dir
 
Spd
km/h
Gust
km/h
Spd
kts
Gust
kts
29/11:30pm -0.4 -3.8 -2.3 87 0.7 W 6 9 3 5 1021.2 1022.1 0.0
29/11:00pm 1.2 -2.2 -0.7 87 0.7 N 7 9 4 5 1021.3 1022.2 0.0
29/10:30pm 1.2 -2.7 -1.2 84 0.9 NNW 9 13 5 7 1021.3 1022.2 0.0
29/10:00pm 3.0 -1.0 0.2 82 1.1 NW 11 15 6 8 1021.3 1022.2 0.0
29/09:30pm 3.2 -0.9 -0.1 79 1.3 NW 11 15 6 8 1021.1 1022.0 0.0
29/09:00pm 3.4 -0.3 -0.1 78 1.4 NW 9 15 5 8 1021.0 1021.9 0.0
29/08:30pm 4.3 -0.2 -0.1 73 1.7 NW 13 28 7 15 1020.9 1021.8 0.0
29/08:00pm 4.7 -0.9 -0.1 71 1.9 WNW 19 26 10 14 1020.6 1021.4 0.0
29/07:30pm 5.2 0.4 0.0 69 2.1 NW 15 22 8 12 1020.6 1021.4 0.0
29/07:00pm 5.1 0.3 0.5 72 1.8 WNW 15 20 8 11 1020.4 1021.2 0.0
29/06:30pm 5.6 1.2 0.6 70 2.0 W 13 20 7 11 1020.1 1020.9 0.0
29/06:00pm 6.4 0.7 0.5 66 2.4 WNW 20 26 11 14 1020.0 1020.8 0.0
29/05:30pm 7.4 -0.8 0.2 60 2.9 WNW 33 41 18 22 1019.4 1020.3 0.0
29/05:00pm 8.7 1.2 1.1 59 3.2 WNW 30 37 16 20 1019.4 1020.3 0.0
29/04:30pm 9.8 2.9 0.4 52 4.0 W 26 43 14 23 1019.2 1020.0 0.0
29/04:00pm 10.1 2.9 0.4 51 4.1 WNW 28 43 15 23 1019.1 1019.9 0.0
29/03:30pm 10.6 2.6 0.6 50 4.3 W 32 43 17 23 1019.1 1019.9 0.0
29/03:00pm 10.5 0.3 -0.6 46 4.6 WNW 43 56 23 30 1018.9 1019.7 0.0
29/02:30pm 10.9 1.4 -0.9 44 4.9 WNW 39 52 21 28 1018.9 1019.7 0.0
29/02:00pm 11.1 1.0 0.2 47 4.6 WNW 43 61 23 33 1019.0 1019.8 0.0
29/01:58pm 10.6 0.3 -1.4 43 4.9 WNW 43 61 23 33 1019.1 1019.9 0.0
29/01:30pm 10.8 0.9 -0.9 44 4.8 WNW 41 56 22 30 1019.4 1020.3 0.0
29/01:00pm 10.8 0.5 -0.9 44 4.8 WNW 43 56 23 30 1019.7 1020.6 0.0
29/12:30pm 11.0 2.3 -0.2 46 4.7 W 35 46 19 25 1020.4 1021.2 0.0
29/12:00pm 11.0 2.9 1.0 50 4.3 W 33 46 18 25 1020.8 1021.7 0.0

Latest Capital City Observations: Canberra | Sydney | Melbourne | Brisbane | Adelaide | Perth | Hobart | Darwin

Other Formats:

Comma delimited format used in spreadsheet applications
http://www.bom.gov.au/fwo/IDN60903/IDN60903.95716.axf

JavaScript Object Notation format (JSON) in row-major order
http://www.bom.gov.au/fwo/IDN60903/IDN60903.95716.json